Time;durP1;ratioP1;P1;durP2;ratioP2;P2;SDS_P1;SDS_P2;PMS_P1;PMS_P2;Temp;Humidity;BMP_temperature;BMP_pressure;BME280_temperature;BME280_humidity;BME280_pressure;Samples;Min_cycle;Max_cycle;Signal;HPM_P1;HPM_P2
2022/11/25 00:01:16;;;;;;;;;;;;;;;9.84;56.54;94988.38;5113949;28;1156;-58
2022/11/25 00:03:43;;;;;;;;;;;;;;;9.90;57.02;94991.28;5113852;28;1861;-58
2022/11/25 00:06:14;;;;;;;;;;;;;;;9.90;56.65;94993.09;5113754;28;1079;-58
2022/11/25 00:08:41;;;;;;;;;;;;;;;9.94;55.95;94999.78;5113908;28;972;-58
2022/11/25 00:11:08;;;;;;;;;;;;;;;9.90;56.19;94998.44;5113744;28;1559;-58
2022/11/25 00:13:34;;;;;;;;;;;;;;;9.87;55.87;94996.91;5113673;28;1031;-58
2022/11/25 00:16:03;;;;;;;;;;;;;;;9.86;55.84;94992.56;5113963;28;1047;-58
2022/11/25 00:18:30;;;;;;;;;;;;;;;9.83;56.06;94992.91;5113601;28;1121;-58
2022/11/25 00:20:56;;;;;;;;;;;;;;;9.83;55.48;94998.25;5113874;28;1000;-58
2022/11/25 00:23:22;;;;;;;;;;;;;;;9.82;55.83;94996.56;5113639;28;1071;-58
2022/11/25 00:25:48;;;;;;;;;;;;;;;9.82;56.00;94990.38;5113816;28;1407;-58
2022/11/25 00:28:16;;;;;;;;;;;;;;;9.85;54.97;94990.91;5112116;28;1902;-58
2022/11/25 00:30:42;;;;;;;;;;;;;;;9.87;55.15;94988.91;5113827;28;1020;-58
2022/11/25 00:33:08;;;;;;;;;;;;;;;9.93;54.48;94987.44;5113803;28;1051;-58
2022/11/25 00:35:34;;;;;;;;;;;;;;;9.96;55.49;94995.97;5114828;28;1023;-58
2022/11/25 00:38:00;;;;;;;;;;;;;;;9.99;54.85;95000.13;5117793;28;1000;-58
2022/11/25 00:40:26;;;;;;;;;;;;;;;9.97;55.10;95002.13;5116321;28;991;-58
2022/11/25 00:45:37;;;;;;;;;;;;;;;9.92;55.73;94993.75;5117508;28;1083;-58
2022/11/25 00:48:03;;;;;;;;;;;;;;;9.93;56.21;95001.63;5116309;28;1984;-58
2022/11/25 00:50:29;;;;;;;;;;;;;;;9.92;56.81;95007.97;5117230;28;1025;-58
2022/11/25 00:52:55;;;;;;;;;;;;;;;9.94;55.94;95002.44;5117457;28;968;-58
2022/11/25 00:55:21;;;;;;;;;;;;;;;10.01;54.96;95006.16;5117114;28;3065;-58
2022/11/25 00:57:47;;;;;;;;;;;;;;;9.88;55.48;95003.91;5117224;28;1113;-58
2022/11/25 01:00:13;;;;;;;;;;;;;;;9.89;55.68;95013.63;5117368;28;1264;-58
2022/11/25 01:02:39;;;;;;;;;;;;;;;9.89;56.51;95007.44;5117334;28;1064;-58
2022/11/25 01:05:05;;;;;;;;;;;;;;;9.92;55.97;95023.13;5117217;28;968;-58
2022/11/25 01:07:31;;;;;;;;;;;;;;;9.83;55.82;95018.78;5117014;27;1902;-58
2022/11/25 01:09:57;;;;;;;;;;;;;;;9.87;55.99;95020.97;5117054;28;969;-58
2022/11/25 01:12:23;;;;;;;;;;;;;;;9.90;55.27;95026.00;5116999;28;965;-58
2022/11/25 01:14:49;;;;;;;;;;;;;;;9.91;54.96;95016.97;5116921;28;1049;-58
2022/11/25 01:17:15;;;;;;;;;;;;;;;9.93;55.16;95017.63;5117104;28;980;-58
2022/11/25 01:19:41;;;;;;;;;;;;;;;9.92;55.28;95023.13;5116937;28;1000;-58
2022/11/25 01:22:08;;;;;;;;;;;;;;;9.92;56.08;95029.34;5116883;28;1127;-58
2022/11/25 01:24:34;;;;;;;;;;;;;;;9.92;56.04;95029.34;5116527;28;1086;-58
2022/11/25 01:27:00;;;;;;;;;;;;;;;9.94;56.25;95037.16;5116899;28;1956;-58
2022/11/25 01:29:26;;;;;;;;;;;;;;;10.01;55.27;95034.69;5116854;28;1002;-58
2022/11/25 01:31:56;;;;;;;;;;;;;;;10.02;55.63;95033.72;5116819;28;1007;-58
2022/11/25 01:34:23;;;;;;;;;;;;;;;9.99;55.27;95034.84;5115434;28;1040;-58
2022/11/25 01:36:49;;;;;;;;;;;;;;;10.02;56.01;95039.88;5116656;28;1055;-58
2022/11/25 01:39:16;;;;;;;;;;;;;;;9.94;55.11;95037.16;5116415;28;1035;-58
2022/11/25 01:41:42;;;;;;;;;;;;;;;9.80;54.93;95032.44;5116626;28;972;-58
2022/11/25 01:44:14;;;;;;;;;;;;;;;9.78;54.76;95027.25;5116450;28;1040;-58
2022/11/25 01:46:42;;;;;;;;;;;;;;;9.60;54.39;95019.31;5115437;28;1906;-58
2022/11/25 01:49:12;;;;;;;;;;;;;;;9.57;55.26;95024.97;5116136;28;1028;-58
2022/11/25 01:51:38;;;;;;;;;;;;;;;9.66;55.16;95018.69;5116176;28;968;-59
2022/11/25 01:54:05;;;;;;;;;;;;;;;9.77;54.83;95020.25;5116318;28;3029;-59
2022/11/25 01:56:38;;;;;;;;;;;;;;;9.83;54.53;95022.28;5116179;28;1999;-58
2022/11/25 01:59:04;;;;;;;;;;;;;;;9.76;54.07;95019.41;5116211;28;1047;-59
2022/11/25 02:01:30;;;;;;;;;;;;;;;9.81;54.70;95020.75;5116116;28;1059;-59
2022/11/25 02:03:57;;;;;;;;;;;;;;;9.81;54.27;95012.72;5116139;27;968;-59
2022/11/25 02:06:39;;;;;;;;;;;;;;;9.81;53.65;95015.41;5115743;28;2020;-59
2022/11/25 02:09:06;;;;;;;;;;;;;;;9.83;53.62;95019.59;5116192;28;999;-59
2022/11/25 02:11:34;;;;;;;;;;;;;;;9.81;54.11;95012.72;5115688;28;1135;-59
2022/11/25 02:14:01;;;;;;;;;;;;;;;9.90;54.57;95015.31;5115799;28;1040;-59
2022/11/25 02:16:27;;;;;;;;;;;;;;;9.89;53.97;95013.63;5115763;28;1003;-59
2022/11/25 02:18:53;;;;;;;;;;;;;;;9.92;54.16;95013.31;5115710;28;1046;-59
2022/11/25 02:21:24;;;;;;;;;;;;;;;9.95;54.83;95012.97;5115682;28;1020;-59
2022/11/25 02:23:50;;;;;;;;;;;;;;;9.97;54.23;95016.31;5115557;28;1092;-59
2022/11/25 02:26:16;;;;;;;;;;;;;;;9.99;54.31;95008.16;5115573;28;1016;-59
2022/11/25 02:28:43;;;;;;;;;;;;;;;10.01;54.11;95008.81;5115506;28;2008;-59
2022/11/25 02:31:09;;;;;;;;;;;;;;;9.99;54.19;95016.16;5115565;28;960;-59
2022/11/25 02:33:35;;;;;;;;;;;;;;;9.97;55.03;95010.16;5115249;28;1036;-59
2022/11/25 02:36:06;;;;;;;;;;;;;;;9.92;54.71;95021.31;5115544;28;1202;-59
2022/11/25 02:38:51;;;;;;;;;;;;;;;10.00;54.56;95022.31;5115430;28;969;-59
2022/11/25 02:41:31;;;;;;;;;;;;;;;9.92;54.67;95023.13;5115250;28;1083;-59
2022/11/25 02:43:58;;;;;;;;;;;;;;;9.92;54.79;95015.97;5115196;28;1091;-59
2022/11/25 02:46:26;;;;;;;;;;;;;;;9.95;54.84;95012.97;5114802;28;1887;-59
2022/11/25 02:48:52;;;;;;;;;;;;;;;9.85;54.05;95006.09;5115387;28;987;-59
2022/11/25 02:51:20;;;;;;;;;;;;;;;9.78;54.86;95011.22;5114056;28;1047;-59
2022/11/25 02:53:46;;;;;;;;;;;;;;;9.91;54.73;95016.13;5114984;28;3168;-59
2022/11/25 02:56:14;;;;;;;;;;;;;;;9.94;54.07;95013.13;5114843;28;1613;-59
2022/11/25 02:58:41;;;;;;;;;;;;;;;9.97;54.69;95016.31;5114666;28;1020;-59
2022/11/25 03:01:07;;;;;;;;;;;;;;;9.95;54.61;95014.81;5114884;28;1099;-59
2022/11/25 03:03:34;;;;;;;;;;;;;;;9.88;54.38;95014.59;5114769;28;1091;-59
2022/11/25 03:06:00;;;;;;;;;;;;;;;9.89;54.75;95015.47;5114965;28;1016;-59
2022/11/25 03:08:28;;;;;;;;;;;;;;;9.92;55.26;95021.31;5114463;28;1998;-59
2022/11/25 03:10:54;;;;;;;;;;;;;;;9.78;56.39;95020.06;5114772;28;1007;-59
2022/11/25 03:13:20;;;;;;;;;;;;;;;9.77;56.33;95022.91;5114641;28;1047;-59
2022/11/25 03:15:47;;;;;;;;;;;;;;;9.81;55.92;95018.94;5114834;28;1035;-59
2022/11/25 03:18:13;;;;;;;;;;;;;;;9.90;56.21;95026.00;5114646;28;1019;-59
2022/11/25 03:20:39;;;;;;;;;;;;;;;9.84;56.74;95023.94;5114637;28;968;-59
2022/11/25 03:23:05;;;;;;;;;;;;;;;9.83;57.21;95024.94;5114402;28;1061;-59
2022/11/25 03:25:32;;;;;;;;;;;;;;;9.80;57.08;95019.91;5114544;28;1333;-59
2022/11/25 03:27:58;;;;;;;;;;;;;;;9.79;57.47;95028.94;5114287;28;1995;-59
2022/11/25 03:30:25;;;;;;;;;;;;;;;9.72;57.97;95022.56;5114463;28;973;-59
2022/11/25 03:32:51;;;;;;;;;;;;;;;9.64;58.31;95043.88;5114523;28;1031;-59
2022/11/25 03:35:17;;;;;;;;;;;;;;;9.64;57.91;95036.69;5114164;28;1100;-59
2022/11/25 03:37:43;;;;;;;;;;;;;;;9.69;57.45;95033.53;5114117;28;1060;-59
2022/11/25 03:40:10;;;;;;;;;;;;;;;9.70;56.72;95036.06;5114112;28;1103;-59
2022/11/25 03:42:36;;;;;;;;;;;;;;;9.79;55.75;95044.97;5114030;28;972;-59
2022/11/25 03:45:03;;;;;;;;;;;;;;;9.72;55.28;95035.91;5113949;28;1157;-59
2022/11/25 03:47:29;;;;;;;;;;;;;;;9.48;56.68;95041.91;5113815;28;1918;-59
2022/11/25 03:49:55;;;;;;;;;;;;;;;9.52;57.20;95046.81;5114101;28;1044;-59
2022/11/25 03:52:21;;;;;;;;;;;;;;;9.58;56.55;95053.34;5114243;28;1023;-59
2022/11/25 03:54:47;;;;;;;;;;;;;;;9.54;57.77;95062.63;5114004;28;3121;-59
2022/11/25 03:57:13;;;;;;;;;;;;;;;9.46;58.14;95062.59;5111209;28;2073;-58
2022/11/25 03:59:39;;;;;;;;;;;;;;;9.49;57.66;95059.63;5113829;28;1168;-59
2022/11/25 04:02:05;;;;;;;;;;;;;;;9.42;57.50;95067.41;5113933;28;1161;-59
2022/11/25 04:04:31;;;;;;;;;;;;;;;9.45;57.42;95076.94;5113941;28;1261;-59
2022/11/25 04:06:57;;;;;;;;;;;;;;;9.37;57.27;95067.03;5113791;28;1997;-59
2022/11/25 04:09:24;;;;;;;;;;;;;;;9.32;56.99;95072.00;5113844;28;1031;-59
2022/11/25 04:14:35;;;;;;;;;;;;;;;9.38;57.07;95095.41;5113941;28;1231;-59
2022/11/25 04:17:01;;;;;;;;;;;;;;;9.36;57.21;95084.88;5113863;28;1043;-59
2022/11/25 04:19:27;;;;;;;;;;;;;;;9.43;56.44;95092.25;5113819;28;972;-59
2022/11/25 04:21:53;;;;;;;;;;;;;;;9.45;55.72;95096.47;5113627;28;1126;-59
2022/11/25 04:24:20;;;;;;;;;;;;;;;9.43;56.35;95103.78;5113506;28;1094;-58
2022/11/25 04:26:46;;;;;;;;;;;;;;;9.43;55.89;95102.94;5113838;28;1938;-59
2022/11/25 04:29:12;;;;;;;;;;;;;;;9.42;56.10;95111.94;5113608;28;1839;-59
2022/11/25 04:31:38;;;;;;;;;;;;;;;9.42;56.00;95118.09;5112518;28;1165;-59
2022/11/25 04:34:04;;;;;;;;;;;;;;;9.31;56.70;95116.50;5113678;28;948;-58
2022/11/25 04:36:30;;;;;;;;;;;;;;;9.37;57.63;95112.38;5113537;28;1051;-59
2022/11/25 04:38:56;;;;;;;;;;;;;;;9.44;56.59;95121.47;5113450;28;1023;-59
2022/11/25 04:41:22;;;;;;;;;;;;;;;9.44;56.87;95131.31;5113806;28;1027;-59
2022/11/25 04:43:48;;;;;;;;;;;;;;;9.31;56.97;95127.19;5113473;28;1115;-59
2022/11/25 04:46:18;;;;;;;;;;;;;;;9.34;56.67;95134.06;5113231;28;1233;-58
2022/11/25 04:48:44;;;;;;;;;;;;;;;9.38;56.29;95140.75;5113519;28;1906;-59
2022/11/25 04:51:10;;;;;;;;;;;;;;;9.35;57.35;95143.72;5113394;28;1058;-59
2022/11/25 04:53:36;;;;;;;;;;;;;;;9.41;56.88;95144.94;5113288;28;2868;-59
2022/11/25 04:56:03;;;;;;;;;;;;;;;9.46;56.85;95151.50;5113633;28;980;-59
2022/11/25 05:01:13;;;;;;;;;;;;;;;9.56;56.44;95165.59;5113544;28;1083;-59
2022/11/25 05:03:39;;;;;;;;;;;;;;;9.57;57.28;95172.59;5113317;28;1090;-59
2022/11/25 05:06:06;;;;;;;;;;;;;;;9.55;58.75;95177.25;5109983;28;2873;-59
2022/11/25 05:08:32;;;;;;;;;;;;;;;9.58;57.21;95176.13;5100401;28;2995;-59
2022/11/25 05:10:58;;;;;;;;;;;;;;;9.53;58.52;95176.59;5093017;28;995;-59
2022/11/25 05:13:25;;;;;;;;;;;;;;;9.45;58.66;95184.53;5091669;28;2899;-59
2022/11/25 05:15:51;;;;;;;;;;;;;;;9.30;58.38;95189.56;5108557;28;1094;-59
2022/11/25 05:18:17;;;;;;;;;;;;;;;9.33;58.29;95188.41;5092852;28;980;-59
2022/11/25 05:20:43;;;;;;;;;;;;;;;9.33;58.76;95193.75;5108460;28;1079;-59
2022/11/25 05:23:09;;;;;;;;;;;;;;;9.19;59.22;95205.78;5110671;28;968;-58
2022/11/25 05:25:35;;;;;;;;;;;;;;;9.08;58.56;95198.84;5116211;28;2939;-59
2022/11/25 05:28:01;;;;;;;;;;;;;;;9.15;58.34;95207.09;5116681;28;1902;-59
2022/11/25 05:30:27;;;;;;;;;;;;;;;9.19;58.28;95214.63;5115577;28;960;-59
2022/11/25 05:32:53;;;;;;;;;;;;;;;9.24;57.36;95210.66;5116660;28;1262;-60
2022/11/25 05:35:20;;;;;;;;;;;;;;;9.14;57.87;95221.41;5116652;28;1107;-59
2022/11/25 05:37:46;;;;;;;;;;;;;;;9.21;57.31;95222.47;5116485;28;1036;-59
2022/11/25 05:40:12;;;;;;;;;;;;;;;9.16;57.32;95224.75;5116347;28;1084;-59
2022/11/25 05:42:38;;;;;;;;;;;;;;;9.14;57.72;95226.72;5116457;28;1088;-59
2022/11/25 05:45:05;;;;;;;;;;;;;;;9.06;57.37;95227.47;5116337;28;1257;-59
2022/11/25 05:47:31;;;;;;;;;;;;;;;9.17;57.34;95235.28;5116380;28;1983;-58
2022/11/25 05:49:57;;;;;;;;;;;;;;;9.33;56.38;95242.63;5116200;28;1083;-59
2022/11/25 05:52:23;;;;;;;;;;;;;;;9.32;56.07;95243.59;5116533;28;1044;-58
2022/11/25 05:54:49;;;;;;;;;;;;;;;9.33;56.71;95239.09;5116508;28;1135;-59
2022/11/25 05:57:15;;;;;;;;;;;;;;;9.35;55.75;95250.47;5116159;28;1195;-59
2022/11/25 05:59:41;;;;;;;;;;;;;;;9.51;56.35;95255.13;5116344;28;979;-59
2022/11/25 06:02:07;;;;;;;;;;;;;;;9.60;55.23;95258.72;5116136;28;1033;-58
2022/11/25 06:04:33;;;;;;;;;;;;;;;9.71;55.39;95259.34;5116120;28;1254;-59
2022/11/25 06:06:59;;;;;;;;;;;;;;;9.71;54.82;95259.34;5115871;28;1906;-59
2022/11/25 06:09:25;;;;;;;;;;;;;;;9.87;54.17;95261.31;5116027;28;1036;-60
2022/11/25 06:11:51;;;;;;;;;;;;;;;9.82;54.23;95265.44;5115972;28;1039;-59
2022/11/25 06:14:17;;;;;;;;;;;;;;;9.89;54.01;95264.66;5116042;28;1032;-60
2022/11/25 06:16:43;;;;;;;;;;;;;;;10.04;53.74;95264.13;5115996;28;1043;-59
2022/11/25 06:19:09;;;;;;;;;;;;;;;10.13;53.05;95266.69;5115416;28;1052;-59
2022/11/25 06:21:35;;;;;;;;;;;;;;;10.71;52.45;95262.56;5116088;28;1278;-59
2022/11/25 06:24:01;;;;;;;;;;;;;;;12.95;46.56;95274.22;5115723;28;1234;-59
2022/11/25 06:26:28;;;;;;;;;;;;;;;14.21;44.01;95289.34;5115865;28;1910;-59
2022/11/25 06:28:54;;;;;;;;;;;;;;;13.82;44.53;95282.22;5114523;28;1000;-59
2022/11/25 06:31:22;;;;;;;;;;;;;;;14.57;43.58;95294.13;5115654;27;1028;-59
2022/11/25 06:33:49;;;;;;;;;;;;;;;17.23;39.17;95317.03;5115077;28;1028;-59
2022/11/25 06:36:16;;;;;;;;;;;;;;;20.30;33.51;95341.66;5115405;28;1199;-60
2022/11/25 06:38:46;;;;;;;;;;;;;;;19.46;34.08;95341.50;5115506;28;1024;-60
2022/11/25 06:41:13;;;;;;;;;;;;;;;19.00;34.79;95338.84;5115506;28;1051;-60
2022/11/25 06:43:39;;;;;;;;;;;;;;;15.95;39.30;95316.09;5115533;28;1029;-59
2022/11/25 06:46:06;;;;;;;;;;;;;;;13.75;43.69;95301.91;5115079;28;1182;-67
2022/11/25 06:48:32;;;;;;;;;;;;;;;12.54;46.50;95297.59;5115157;28;1910;-59
2022/11/25 06:50:59;;;;;;;;;;;;;;;11.80;48.35;95286.84;5115237;28;1068;-60
2022/11/25 06:53:26;;;;;;;;;;;;;;;11.18;49.33;95292.56;5115401;28;969;-59
2022/11/25 06:56:07;;;;;;;;;;;;;;;10.96;50.69;95288.59;5115406;28;969;-59
2022/11/25 06:58:34;;;;;;;;;;;;;;;10.80;51.48;95297.41;5114057;28;988;-59
2022/11/25 07:01:06;;;;;;;;;;;;;;;10.73;51.73;95303.34;5113831;28;1083;-60
2022/11/25 07:03:33;;;;;;;;;;;;;;;10.63;52.03;95305.31;5115270;28;1002;-59
2022/11/25 07:05:59;;;;;;;;;;;;;;;10.56;52.56;95298.91;5115060;28;1192;-60
2022/11/25 07:08:25;;;;;;;;;;;;;;;10.57;52.35;95305.94;5114797;28;1910;-61
2022/11/25 07:10:52;;;;;;;;;;;;;;;10.54;52.13;95316.94;5114817;28;1098;-58
2022/11/25 07:13:19;;;;;;;;;;;;;;;10.57;52.43;95313.97;5114500;28;1109;-59
2022/11/25 07:15:45;;;;;;;;;;;;;;;10.64;52.45;95319.50;5113037;28;1246;-59
2022/11/25 07:18:11;;;;;;;;;;;;;;;10.68;52.20;95321.72;5114592;28;1041;-59
2022/11/25 07:20:38;;;;;;;;;;;;;;;10.72;52.45;95327.59;5114376;28;967;-59
2022/11/25 07:23:04;;;;;;;;;;;;;;;10.86;52.67;95327.00;5114169;28;1094;-59
2022/11/25 07:25:31;;;;;;;;;;;;;;;10.98;52.03;95327.56;5114249;28;1091;-58
2022/11/25 07:27:57;;;;;;;;;;;;;;;10.86;52.22;95320.81;5114489;28;1929;-59
2022/11/25 07:30:23;;;;;;;;;;;;;;;10.88;52.70;95330.34;5109242;28;2959;-59
2022/11/25 07:32:49;;;;;;;;;;;;;;;11.05;52.31;95322.44;5105405;28;3089;-59
2022/11/25 07:35:15;;;;;;;;;;;;;;;11.05;51.47;95325.09;5094014;28;963;-59
2022/11/25 07:37:41;;;;;;;;;;;;;;;11.18;51.74;95330.84;5108524;28;2836;-59
2022/11/25 07:40:07;;;;;;;;;;;;;;;11.45;51.32;95324.44;5113065;28;975;-59
2022/11/25 07:42:33;;;;;;;;;;;;;;;11.49;50.56;95327.63;5114347;28;1056;-59
2022/11/25 07:44:59;;;;;;;;;;;;;;;11.49;51.27;95323.09;5113172;28;1063;-59
2022/11/25 07:47:25;;;;;;;;;;;;;;;11.61;51.38;95318.31;5114443;28;1910;-59
2022/11/25 07:49:52;;;;;;;;;;;;;;;12.00;50.41;95319.56;5114404;28;1003;-59
2022/11/25 07:52:19;;;;;;;;;;;;;;;12.21;49.54;95324.44;5114349;28;1048;-59
2022/11/25 07:54:45;;;;;;;;;;;;;;;12.22;49.53;95326.13;5114241;28;999;-60
2022/11/25 07:57:11;;;;;;;;;;;;;;;12.38;48.98;95336.00;5112904;28;1063;-60
2022/11/25 07:59:40;;;;;;;;;;;;;;;12.41;49.58;95331.16;5113987;28;1043;-59
2022/11/25 08:02:08;;;;;;;;;;;;;;;12.56;49.29;95339.38;5114204;28;973;-59
2022/11/25 08:04:34;;;;;;;;;;;;;;;12.66;48.83;95349.91;5113944;28;1145;-60
2022/11/25 08:07:00;;;;;;;;;;;;;;;12.73;48.48;95340.19;5114092;28;1910;-60
2022/11/25 08:09:27;;;;;;;;;;;;;;;12.67;48.45;95339.03;5114048;28;1031;-59
2022/11/25 08:11:53;;;;;;;;;;;;;;;12.74;47.75;95341.03;5113848;28;945;-59
2022/11/25 08:14:19;;;;;;;;;;;;;;;12.94;47.52;95339.66;5113876;28;1043;-60
2022/11/25 08:16:45;;;;;;;;;;;;;;;13.14;47.64;95336.56;5114110;28;1051;-59
2022/11/25 08:19:13;;;;;;;;;;;;;;;13.17;46.94;95338.91;5113771;28;1095;-60
2022/11/25 08:21:39;;;;;;;;;;;;;;;13.19;46.39;95347.63;5113993;28;1003;-60
2022/11/25 08:24:05;;;;;;;;;;;;;;;13.04;46.58;95342.97;5113841;28;1066;-59
2022/11/25 08:26:35;;;;;;;;;;;;;;;13.20;46.91;95349.28;5113839;28;976;-59
2022/11/25 08:29:01;;;;;;;;;;;;;;;13.17;46.88;95352.34;5113670;28;1003;-59
2022/11/25 08:31:29;;;;;;;;;;;;;;;13.28;46.54;95349.28;5113994;28;1003;-59
2022/11/25 08:33:55;;;;;;;;;;;;;;;13.48;45.69;95347.88;5113853;28;1028;-59
2022/11/25 08:36:22;;;;;;;;;;;;;;;13.73;45.46;95350.44;5113628;28;1051;-59
2022/11/25 08:38:49;;;;;;;;;;;;;;;13.75;45.07;95350.28;5113685;28;1950;-60
2022/11/25 08:41:20;;;;;;;;;;;;;;;14.14;45.19;95357.47;5113613;28;972;-60
2022/11/25 08:43:46;;;;;;;;;;;;;;;14.29;44.74;95355.69;5114091;28;1067;-60
2022/11/25 08:46:13;;;;;;;;;;;;;;;14.30;43.59;95359.19;5113424;28;1207;-60
2022/11/25 08:48:40;;;;;;;;;;;;;;;14.10;44.29;95345.41;5113543;28;1975;-61
2022/11/25 08:51:11;;;;;;;;;;;;;;;13.93;44.44;95355.41;5113514;28;965;-60
2022/11/25 08:53:38;;;;;;;;;;;;;;;18.80;36.54;95379.44;5100540;28;2914;-61
2022/11/25 08:56:05;;;;;;;;;;;;;;;23.69;29.68;95419.78;5113641;28;1312;-61
2022/11/25 08:58:31;;;;;;;;;;;;;;;26.91;26.61;95431.25;5110024;27;3204;-61
2022/11/25 09:00:57;;;;;;;;;;;;;;;31.46;21.20;95465.88;5096939;28;991;-61
2022/11/25 09:03:23;;;;;;;;;;;;;;;33.35;19.71;95477.09;5097037;28;1027;-62
2022/11/25 09:05:49;;;;;;;;;;;;;;;34.94;18.78;95479.19;5146468;27;1153;-62
2022/11/25 09:08:15;;;;;;;;;;;;;;;33.37;18.24;95466.53;5117139;28;2051;-60
2022/11/25 09:10:41;;;;;;;;;;;;;;;33.70;18.62;95465.81;5116922;28;2949;-62
2022/11/25 09:13:09;;;;;;;;;;;;;;;35.16;17.07;95484.03;5116921;28;1092;-62
2022/11/25 09:15:35;;;;;;;;;;;;;;;30.83;19.90;95464.50;5117259;28;984;-62
2022/11/25 09:18:03;;;;;;;;;;;;;;;25.83;23.82;95435.25;5117097;28;1019;-59
2022/11/25 09:20:30;;;;;;;;;;;;;;;27.76;22.33;95431.53;5116906;28;1106;-60
2022/11/25 09:23:00;;;;;;;;;;;;;;;30.43;19.76;95452.50;5116493;28;1610;-59
2022/11/25 09:25:27;;;;;;;;;;;;;;;31.59;19.48;95448.69;5116522;28;1898;-59
2022/11/25 09:27:54;;;;;;;;;;;;;;;32.57;19.07;95467.22;5116932;28;1978;-66
2022/11/25 09:30:20;;;;;;;;;;;;;;;32.16;17.84;95476.72;5116714;28;1036;-60
2022/11/25 09:32:49;;;;;;;;;;;;;;;26.64;22.76;95443.00;5116831;28;949;-60
2022/11/25 09:35:15;;;;;;;;;;;;;;;21.45;28.09;95416.78;5116749;27;1035;-59
2022/11/25 09:37:42;;;;;;;;;;;;;;;18.37;32.04;95398.75;5116766;28;987;-60
2022/11/25 09:40:15;;;;;;;;;;;;;;;20.68;29.33;95395.16;5116532;28;1058;-61
2022/11/25 09:48:57;;;;;;;;;;;;;;;15.57;36.50;95380.91;5112191;28;3054;-59
2022/11/25 09:51:35;;;;;;;;;;;;;;;14.59;37.56;95375.50;5116291;28;1130;-59
2022/11/25 09:54:27;;;;;;;;;;;;;;;14.20;38.94;95378.25;5116249;28;1550;-59
2022/11/25 09:56:59;;;;;;;;;;;;;;;15.01;38.32;95374.09;5092249;28;1116;-59
2022/11/25 09:59:34;;;;;;;;;;;;;;;21.74;28.71;95400.78;5112877;28;3026;-59
2022/11/25 10:02:02;;;;;;;;;;;;;;;27.80;23.04;95438.97;5095920;28;1004;-59
2022/11/25 10:04:32;;;;;;;;;;;;;;;28.37;21.69;95458.63;5100872;28;1157;-60
2022/11/25 10:07:00;;;;;;;;;;;;;;;32.26;17.53;95484.91;5115881;28;1905;-60
2022/11/25 10:09:28;;;;;;;;;;;;;;;34.21;16.69;95493.56;5115048;28;979;-61
2022/11/25 10:12:26;;;;;;;;;;;;;;;36.20;15.20;95511.22;5109505;28;2884;-60
2022/11/25 10:14:58;;;;;;;;;;;;;;;36.34;15.67;95521.16;5081705;28;1208;-62
2022/11/25 10:17:24;;;;;;;;;;;;;;;35.89;16.46;95515.53;5115971;28;1031;-61
2022/11/25 10:19:50;;;;;;;;;;;;;;;34.13;16.86;95519.19;5115773;28;1040;-61
2022/11/25 10:22:24;;;;;;;;;;;;;;;32.20;17.58;95499.91;5115552;28;952;-60
2022/11/25 10:24:52;;;;;;;;;;;;;;;28.81;20.43;95480.34;5115612;27;1091;-60
2022/11/25 10:27:23;;;;;;;;;;;;;;;25.58;23.56;95463.88;5115592;28;2000;-60
2022/11/25 10:29:58;;;;;;;;;;;;;;;23.33;25.76;95452.47;5115710;28;968;-59
2022/11/25 10:32:26;;;;;;;;;;;;;;;22.48;26.95;95450.72;5115578;28;1866;-60
2022/11/25 10:34:56;;;;;;;;;;;;;;;20.48;29.64;95433.25;5115789;28;948;-60
2022/11/25 10:37:25;;;;;;;;;;;;;;;19.87;30.70;95431.78;5115468;28;1630;-59
2022/11/25 10:39:51;;;;;;;;;;;;;;;20.27;30.28;95431.66;5115225;28;1028;-59
2022/11/25 10:42:20;;;;;;;;;;;;;;;18.43;32.16;95431.22;5115365;28;1659;-59
2022/11/25 10:44:46;;;;;;;;;;;;;;;17.00;34.63;95424.50;5115157;28;1083;-60
2022/11/25 10:47:24;;;;;;;;;;;;;;;16.95;35.46;95425.09;5115135;27;1992;-60
2022/11/25 10:49:58;;;;;;;;;;;;;;;24.80;25.90;95466.25;5115286;28;1656;-60
2022/11/25 10:52:26;;;;;;;;;;;;;;;28.72;21.37;95481.94;5115480;28;968;-61
2022/11/25 10:54:57;;;;;;;;;;;;;;;26.23;23.46;95480.78;5115292;28;1108;-61
2022/11/25 10:57:26;;;;;;;;;;;;;;;24.36;25.18;95469.41;5115113;28;1864;-62
2022/11/25 10:59:57;;;;;;;;;;;;;;;20.54;29.87;95456.00;5115395;28;987;-61
2022/11/25 11:02:24;;;;;;;;;;;;;;;18.00;33.04;95447.69;5115221;27;1016;-59
2022/11/25 11:04:52;;;;;;;;;;;;;;;17.71;33.46;95443.34;5115085;28;1165;-60
2022/11/25 11:07:18;;;;;;;;;;;;;;;17.03;34.48;95426.81;5114992;28;1918;-59
2022/11/25 11:09:45;;;;;;;;;;;;;;;16.45;35.81;95422.28;5113777;28;1000;-60
2022/11/25 11:12:17;;;;;;;;;;;;;;;15.73;37.41;95421.19;5147752;27;1087;-60
2022/11/25 11:14:43;;;;;;;;;;;;;;;15.68;37.60;95410.09;5115008;28;948;-59
2022/11/25 11:17:29;;;;;;;;;;;;;;;15.83;37.05;95407.44;5114885;28;972;-59
2022/11/25 11:20:11;;;;;;;;;;;;;;;15.55;37.84;95416.13;5114525;28;1137;-58
2022/11/25 11:22:44;;;;;;;;;;;;;;;15.26;39.14;95411.56;5114949;28;987;-59
2022/11/25 11:25:19;;;;;;;;;;;;;;;15.16;38.95;95413.69;5114768;28;1120;-58
2022/11/25 11:27:45;;;;;;;;;;;;;;;15.01;38.79;95416.34;5114433;28;1917;-58
2022/11/25 11:30:19;;;;;;;;;;;;;;;14.99;39.37;95411.16;5114603;28;980;-59
2022/11/25 11:32:54;;;;;;;;;;;;;;;14.92;39.40;95414.75;5114489;28;1040;-58
2022/11/25 11:35:26;;;;;;;;;;;;;;;14.79;39.88;95407.28;5114723;28;1066;-59
2022/11/25 11:37:53;;;;;;;;;;;;;;;14.57;40.09;95412.50;5114440;28;1048;-58
2022/11/25 11:40:38;;;;;;;;;;;;;;;14.29;40.57;95408.63;5114363;28;1052;-59
2022/11/25 11:43:04;;;;;;;;;;;;;;;14.29;40.65;95409.47;5114359;28;984;-59
2022/11/25 11:45:38;;;;;;;;;;;;;;;14.24;40.55;95409.16;5114074;28;1237;-60
2022/11/25 11:48:04;;;;;;;;;;;;;;;14.17;41.87;95398.28;5114271;28;1915;-59
2022/11/25 11:50:32;;;;;;;;;;;;;;;14.20;41.35;95403.28;5114396;28;984;-60
2022/11/25 11:53:09;;;;;;;;;;;;;;;14.32;41.35;95402.88;5114079;28;1100;-59
2022/11/25 11:55:51;;;;;;;;;;;;;;;14.34;40.47;95412.47;5113080;28;1063;-59
2022/11/25 11:58:35;;;;;;;;;;;;;;;14.31;40.69;95406.59;5114265;28;953;-59
2022/11/25 12:01:01;;;;;;;;;;;;;;;14.48;40.75;95408.16;5113919;28;1086;-59
2022/11/25 12:03:28;;;;;;;;;;;;;;;14.32;40.49;95408.25;5113975;28;1055;-58
2022/11/25 12:05:56;;;;;;;;;;;;;;;14.06;41.17;95406.75;5113940;28;1145;-59
2022/11/25 12:08:28;;;;;;;;;;;;;;;13.93;41.44;95401.09;5113897;28;1906;-59
2022/11/25 12:11:02;;;;;;;;;;;;;;;13.89;41.35;95402.44;5114137;28;987;-59
2022/11/25 12:13:31;;;;;;;;;;;;;;;13.77;41.81;95405.53;5112680;28;1040;-59
2022/11/25 12:16:12;;;;;;;;;;;;;;;13.81;41.73;95404.19;5113978;28;1139;-59
2022/11/25 12:18:38;;;;;;;;;;;;;;;13.79;42.21;95406.22;5113904;28;1156;-59
2022/11/25 12:21:07;;;;;;;;;;;;;;;13.72;42.16;95409.78;5113796;28;1047;-58
2022/11/25 12:23:43;;;;;;;;;;;;;;;13.89;41.77;95408.69;5114109;28;1204;-59
2022/11/25 12:26:16;;;;;;;;;;;;;;;13.93;42.15;95396.56;5113729;28;1028;-60
2022/11/25 12:28:46;;;;;;;;;;;;;;;13.82;42.14;95396.94;5113782;28;1910;-60
2022/11/25 12:31:19;;;;;;;;;;;;;;;13.86;42.62;95395.56;5114436;28;1090;-60
2022/11/25 12:33:51;;;;;;;;;;;;;;;13.86;42.46;95393.72;5118045;28;933;-59
2022/11/25 12:36:20;;;;;;;;;;;;;;;13.85;41.94;95392.06;5118076;28;960;-59
2022/11/25 12:38:46;;;;;;;;;;;;;;;13.56;42.58;95386.47;5118070;28;1036;-59
2022/11/25 12:41:18;;;;;;;;;;;;;;;13.39;42.69;95385.69;5117846;28;1059;-59
2022/11/25 12:43:57;;;;;;;;;;;;;;;13.37;42.84;95385.03;5117767;28;964;-59
2022/11/25 12:46:23;;;;;;;;;;;;;;;13.34;42.38;95390.75;5117563;27;1190;-59
2022/11/25 12:48:50;;;;;;;;;;;;;;;13.22;42.16;95391.09;5117780;28;1909;-59
2022/11/25 12:51:35;;;;;;;;;;;;;;;13.17;43.21;95390.75;5117533;28;1252;-59
2022/11/25 12:54:16;;;;;;;;;;;;;;;13.15;42.92;95390.09;5117584;28;1051;-59
2022/11/25 12:56:49;;;;;;;;;;;;;;;13.05;43.19;95389.44;5117818;28;960;-59
2022/11/25 12:59:27;;;;;;;;;;;;;;;12.96;43.62;95393.97;5117550;27;1186;-58
2022/11/25 13:02:16;;;;;;;;;;;;;;;12.96;43.43;95385.09;5117217;28;1036;-59
2022/11/25 13:04:42;;;;;;;;;;;;;;;12.99;43.68;95388.25;5117033;28;1774;-59
2022/11/25 13:07:23;;;;;;;;;;;;;;;12.83;43.92;95382.94;5117094;28;1905;-59
2022/11/25 13:10:02;;;;;;;;;;;;;;;12.89;44.42;95382.25;5117194;28;1039;-59
2022/11/25 13:12:28;;;;;;;;;;;;;;;13.06;43.88;95389.25;5117206;28;971;-59
2022/11/25 13:15:00;;;;;;;;;;;;;;;13.02;43.75;95379.88;5117055;28;1036;-59
2022/11/25 13:17:28;;;;;;;;;;;;;;;13.15;43.71;95389.25;5117036;28;1044;-59
2022/11/25 13:20:13;;;;;;;;;;;;;;;13.22;43.88;95396.47;5117142;28;980;-59
2022/11/25 13:22:39;;;;;;;;;;;;;;;13.28;43.95;95397.63;5116931;28;1044;-58